Time;durP1;ratioP1;P1;durP2;ratioP2;P2;SDS_P1;SDS_P2;PMS_P1;PMS_P2;Temp;Humidity;BMP_temperature;BMP_pressure;BME280_temperature;BME280_humidity;BME280_pressure;Samples;Min_cycle;Max_cycle;Signal;HPM_P1;HPM_P2
2020/12/22 00:01:11;;;;;;;1.10;1.00;;;12.30;99.90;;;;;;5051820;28;20679;-66
2020/12/22 00:03:36;;;;;;;1.00;1.00;;;12.30;99.90;;;;;;5071549;28;20178;-65
2020/12/22 00:06:02;;;;;;;1.00;1.00;;;12.40;99.90;;;;;;5071576;28;20193;-65
2020/12/22 00:08:27;;;;;;;1.10;1.00;;;12.40;99.90;;;;;;5051890;28;20179;-65
2020/12/22 00:10:53;;;;;;;1.07;1.00;;;12.40;99.90;;;;;;5050838;28;20569;-65
2020/12/22 00:13:19;;;;;;;0.80;0.80;;;12.50;99.90;;;;;;5068563;28;20276;-64
2020/12/22 00:15:44;;;;;;;0.90;0.90;;;12.50;99.90;;;;;;5071354;28;20678;-62
2020/12/22 00:18:11;;;;;;;0.77;0.77;;;12.60;99.90;;;;;;5037480;28;20171;-63
2020/12/22 00:20:37;;;;;;;0.80;0.80;;;12.60;99.90;;;;;;5050881;28;20517;-62
2020/12/22 00:23:03;;;;;;;0.60;0.60;;;12.70;99.90;;;;;;5055489;28;20175;-61
2020/12/22 00:25:29;;;;;;;0.80;0.80;;;12.70;99.90;;;;;;5051376;28;20174;-64
2020/12/22 00:27:55;;;;;;;1.70;0.90;;;12.80;99.90;;;;;;5068317;28;20174;-62
2020/12/22 00:30:20;;;;;;;0.90;0.90;;;12.80;99.90;;;;;;5052918;28;20624;-62
2020/12/22 00:32:46;;;;;;;0.90;0.90;;;12.90;99.90;;;;;;5055170;28;20225;-62
2020/12/22 00:35:12;;;;;;;0.90;0.80;;;13.00;99.90;;;;;;5051163;28;20171;-63
2020/12/22 00:37:37;;;;;;;0.70;0.70;;;13.00;99.90;;;;;;5064903;28;20189;-62
2020/12/22 00:40:04;;;;;;;0.80;0.80;;;13.00;99.90;;;;;;5070845;28;20188;-62
2020/12/22 00:42:31;;;;;;;0.90;0.90;;;13.10;99.90;;;;;;5058566;28;20237;-63
2020/12/22 00:44:57;;;;;;;0.90;0.90;;;13.20;99.90;;;;;;5051064;28;20206;-64
2020/12/22 00:47:22;;;;;;;0.80;0.80;;;13.30;99.90;;;;;;5061629;28;20636;-65
2020/12/22 00:49:48;;;;;;;0.73;0.73;;;13.30;99.90;;;;;;5062863;28;20175;-65
2020/12/22 00:52:13;;;;;;;0.80;0.80;;;13.40;99.90;;;;;;5050626;28;20182;-63
2020/12/22 00:54:39;;;;;;;0.80;0.80;;;13.40;99.90;;;;;;5056997;28;20167;-64
2020/12/22 00:57:04;;;;;;;0.83;0.83;;;13.50;99.90;;;;;;5070656;28;20229;-65
2020/12/22 00:59:30;;;;;;;0.70;0.70;;;13.50;99.90;;;;;;5066230;28;20231;-65
2020/12/22 01:01:56;;;;;;;0.70;0.70;;;13.60;99.90;;;;;;5050801;28;20203;-64
2020/12/22 01:04:21;;;;;;;0.80;0.80;;;13.70;99.90;;;;;;5053307;28;20178;-64
2020/12/22 01:06:47;;;;;;;0.70;0.70;;;13.80;99.90;;;;;;5070702;28;20204;-65
2020/12/22 01:09:12;;;;;;;1.23;0.63;;;13.80;99.90;;;;;;5051691;28;20269;-65
2020/12/22 01:11:39;;;;;;;2.07;0.90;;;13.90;99.90;;;;;;5050625;28;20215;-65
2020/12/22 01:14:05;;;;;;;0.80;0.80;;;13.90;99.90;;;;;;5051013;28;20159;-65
2020/12/22 01:16:31;;;;;;;0.90;0.90;;;13.90;99.90;;;;;;5070336;28;20617;-63
2020/12/22 01:18:57;;;;;;;0.70;0.70;;;13.90;99.90;;;;;;5053561;28;20193;-65
2020/12/22 01:21:23;;;;;;;0.77;0.77;;;14.00;99.90;;;;;;5050342;28;20210;-62
2020/12/22 01:23:49;;;;;;;0.70;0.70;;;14.00;99.90;;;;;;5061798;28;20182;-62
2020/12/22 01:26:21;;;;;;;0.60;0.60;;;14.00;99.90;;;;;;5070580;28;20201;-64
2020/12/22 01:28:47;;;;;;;0.77;0.77;;;14.00;99.90;;;;;;5059380;28;20186;-63
2020/12/22 01:31:26;;;;;;;1.37;1.00;;;14.00;99.90;;;;;;5053838;28;20566;-63
2020/12/22 01:33:54;;;;;;;0.80;0.80;;;13.90;99.90;;;;;;5068574;28;20220;-63
2020/12/22 01:36:20;;;;;;;1.40;0.90;;;14.00;99.90;;;;;;5074035;28;20171;-63
2020/12/22 01:38:46;;;;;;;0.73;0.73;;;14.00;99.90;;;;;;5060620;28;20181;-65
2020/12/22 01:41:13;;;;;;;2.20;1.60;;;14.10;99.90;;;;;;5053780;28;20605;-65
2020/12/22 01:43:39;;;;;;;2.23;0.93;;;14.10;99.90;;;;;;5065605;28;20186;-65
2020/12/22 01:46:05;;;;;;;1.03;1.00;;;14.10;99.90;;;;;;5065088;28;20212;-65
2020/12/22 01:48:31;;;;;;;0.90;0.90;;;14.10;99.90;;;;;;5054032;28;20198;-64
2020/12/22 01:50:57;;;;;;;0.97;0.97;;;14.10;99.90;;;;;;5060543;28;20225;-64
2020/12/22 01:53:23;;;;;;;0.80;0.80;;;14.10;99.90;;;;;;5074183;28;20172;-65
2020/12/22 01:55:49;;;;;;;1.47;0.80;;;14.10;99.90;;;;;;5067785;28;20257;-64
2020/12/22 01:58:15;;;;;;;0.97;0.90;;;14.10;99.90;;;;;;5053724;28;20163;-67
2020/12/22 02:00:41;;;;;;;1.53;1.00;;;14.10;99.90;;;;;;5062861;28;20247;-67
2020/12/22 02:03:08;;;;;;;2.07;0.90;;;14.10;99.90;;;;;;5073672;28;20524;-67
2020/12/22 02:05:36;;;;;;;1.13;0.90;;;14.10;99.90;;;;;;5065201;28;20190;-66
2020/12/22 02:08:02;;;;;;;0.97;0.97;;;14.10;99.90;;;;;;5053493;28;20258;-66
2020/12/22 02:10:28;;;;;;;0.93;0.90;;;14.10;99.90;;;;;;5059720;28;20647;-64
2020/12/22 02:12:54;;;;;;;0.90;0.90;;;14.10;99.90;;;;;;5073459;28;20181;-63
2020/12/22 02:15:19;;;;;;;1.70;1.43;;;14.10;99.90;;;;;;5054593;28;20178;-64
2020/12/22 02:17:45;;;;;;;1.50;1.17;;;14.10;99.90;;;;;;5053447;28;20171;-64
2020/12/22 02:20:12;;;;;;;1.00;1.00;;;14.00;99.90;;;;;;5054098;28;20586;-64
2020/12/22 02:22:37;;;;;;;2.20;1.00;;;14.00;99.90;;;;;;5053336;28;20191;-63
2020/12/22 02:25:05;;;;;;;0.90;0.90;;;13.90;99.90;;;;;;5072889;28;20255;-65
2020/12/22 02:27:36;;;;;;;1.57;1.00;;;13.90;99.90;;;;;;5073126;28;20693;-64
2020/12/22 02:30:03;;;;;;;0.90;0.90;;;13.90;99.90;;;;;;5053412;28;20181;-65
2020/12/22 02:32:29;;;;;;;0.80;0.80;;;13.90;99.90;;;;;;5053212;28;20183;-64
2020/12/22 02:34:54;;;;;;;1.00;1.00;;;13.90;99.90;;;;;;5056499;28;20548;-63
2020/12/22 02:37:21;;;;;;;0.90;0.90;;;13.90;99.90;;;;;;5052975;28;20210;-64
2020/12/22 02:39:48;;;;;;;1.13;0.97;;;13.90;99.90;;;;;;5067642;28;20232;-64
2020/12/22 02:42:14;;;;;;;1.10;1.10;;;13.90;99.90;;;;;;5072464;28;20190;-64
2020/12/22 02:44:40;;;;;;;0.90;0.90;;;14.00;99.90;;;;;;5058344;28;20187;-65
2020/12/22 02:47:12;;;;;;;1.00;0.90;;;14.00;99.90;;;;;;5034743;28;20245;-65
2020/12/22 02:49:38;;;;;;;1.10;1.10;;;14.00;99.90;;;;;;5069407;28;20185;-65
2020/12/22 02:52:04;;;;;;;2.10;1.00;;;14.00;99.90;;;;;;5072316;28;20206;-65
2020/12/22 02:54:29;;;;;;;1.60;1.00;;;13.80;99.90;;;;;;5057547;28;20190;-64
2020/12/22 02:56:55;;;;;;;1.00;1.00;;;13.70;99.90;;;;;;5052517;28;20175;-64
2020/12/22 02:59:20;;;;;;;1.67;1.20;;;13.60;99.90;;;;;;5065423;28;20745;-66
2020/12/22 03:01:46;;;;;;;1.23;1.13;;;13.50;99.90;;;;;;5064341;28;20297;-65
2020/12/22 03:04:12;;;;;;;2.50;1.00;;;13.40;99.90;;;;;;5053377;28;20179;-65
2020/12/22 03:06:38;;;;;;;1.37;1.27;;;13.40;99.90;;;;;;5057938;28;20214;-66
2020/12/22 03:09:05;;;;;;;1.07;1.00;;;13.40;99.90;;;;;;5072119;28;20169;-66
2020/12/22 03:11:31;;;;;;;1.33;1.20;;;13.50;99.90;;;;;;5067623;28;20229;-66
2020/12/22 03:13:56;;;;;;;2.10;1.90;;;13.40;99.90;;;;;;5052350;28;20191;-65
2020/12/22 03:16:22;;;;;;;1.60;1.40;;;13.50;99.90;;;;;;5054166;28;20189;-66
2020/12/22 03:18:48;;;;;;;0.97;0.97;;;13.60;99.90;;;;;;5072070;28;20174;-65
2020/12/22 03:21:15;;;;;;;1.80;1.00;;;13.60;99.90;;;;;;5071168;28;20193;-66
2020/12/22 03:23:41;;;;;;;2.07;1.10;;;13.60;99.90;;;;;;5052316;28;20171;-65
2020/12/22 03:26:06;;;;;;;1.23;1.00;;;13.60;99.90;;;;;;5051899;28;20206;-65
2020/12/22 03:28:32;;;;;;;0.93;0.93;;;13.60;99.90;;;;;;5053138;28;20542;-66
2020/12/22 03:30:58;;;;;;;1.40;1.10;;;13.60;99.90;;;;;;5051526;28;20665;-66
2020/12/22 03:33:23;;;;;;;1.00;1.00;;;13.60;99.90;;;;;;5068529;28;20186;-65
2020/12/22 03:35:49;;;;;;;1.77;1.27;;;13.60;99.90;;;;;;5072056;28;20648;-65
2020/12/22 03:38:14;;;;;;;1.30;1.20;;;13.60;99.90;;;;;;5056799;28;20221;-64
2020/12/22 03:40:40;;;;;;;1.60;1.47;;;13.70;99.90;;;;;;5051678;28;20213;-64
2020/12/22 03:43:06;;;;;;;1.17;1.07;;;13.70;99.90;;;;;;5064491;28;20186;-67
2020/12/22 03:45:31;;;;;;;0.80;0.80;;;13.70;99.90;;;;;;5071929;28;20172;-66
2020/12/22 03:47:57;;;;;;;1.00;1.00;;;13.70;99.90;;;;;;5060213;28;20217;-67
2020/12/22 03:50:23;;;;;;;1.00;1.00;;;13.70;99.90;;;;;;5051073;28;20236;-66
2020/12/22 03:52:49;;;;;;;1.03;1.00;;;13.70;99.90;;;;;;5060757;28;20193;-66
2020/12/22 03:55:15;;;;;;;1.20;1.20;;;13.80;99.90;;;;;;5067006;28;20186;-67
2020/12/22 03:57:41;;;;;;;1.43;1.00;;;13.80;99.90;;;;;;5051699;28;20175;-65
2020/12/22 04:00:07;;;;;;;0.80;0.80;;;13.80;99.90;;;;;;5064226;28;20565;-66
2020/12/22 04:02:34;;;;;;;0.90;0.90;;;13.80;99.90;;;;;;5071647;28;20567;-66
2020/12/22 04:04:59;;;;;;;0.90;0.90;;;13.80;99.90;;;;;;5060066;28;20179;-67
2020/12/22 04:07:25;;;;;;;2.40;1.00;;;13.90;99.90;;;;;;5051464;28;20226;-65
2020/12/22 04:09:50;;;;;;;0.80;0.80;;;13.90;99.90;;;;;;5060557;28;20231;-67
2020/12/22 04:12:17;;;;;;;0.87;0.87;;;13.90;99.90;;;;;;5071101;28;20579;-67
2020/12/22 04:14:42;;;;;;;0.87;0.87;;;13.90;99.90;;;;;;5063866;28;20293;-64
2020/12/22 04:17:08;;;;;;;0.97;0.97;;;14.00;99.90;;;;;;5051190;28;20171;-66
2020/12/22 04:19:33;;;;;;;1.10;1.00;;;14.00;99.90;;;;;;5056838;28;20517;-66
2020/12/22 04:21:59;;;;;;;1.00;0.90;;;14.00;99.90;;;;;;5071201;28;20194;-67
2020/12/22 04:24:25;;;;;;;1.20;1.10;;;14.10;99.90;;;;;;5057680;28;20189;-66
2020/12/22 04:26:50;;;;;;;0.90;0.90;;;14.10;99.90;;;;;;5051234;28;20230;-66
2020/12/22 04:29:16;;;;;;;0.90;0.90;;;14.00;99.90;;;;;;5062721;28;20268;-66
2020/12/22 04:31:41;;;;;;;2.20;1.00;;;13.90;99.90;;;;;;5071090;28;20190;-64
2020/12/22 04:34:07;;;;;;;1.00;1.00;;;13.80;99.90;;;;;;5061276;28;20210;-67
2020/12/22 04:36:33;;;;;;;1.33;1.23;;;13.70;99.90;;;;;;5051233;28;20328;-66
2020/12/22 04:38:58;;;;;;;0.80;0.80;;;13.70;99.90;;;;;;5058727;28;20619;-67
2020/12/22 04:41:24;;;;;;;1.43;1.10;;;13.70;99.90;;;;;;5070967;28;20216;-66
2020/12/22 04:43:51;;;;;;;0.70;0.70;;;13.70;99.90;;;;;;5064829;28;20555;-66
2020/12/22 04:46:19;;;;;;;0.90;0.90;;;13.80;99.90;;;;;;5050149;28;20277;-67
2020/12/22 04:48:53;;;;;;;0.80;0.80;;;13.80;99.90;;;;;;5052066;28;20654;-67
2020/12/22 04:51:20;;;;;;;0.90;0.90;;;13.90;99.90;;;;;;5054263;28;20204;-67
2020/12/22 04:53:46;;;;;;;0.80;0.80;;;13.90;99.90;;;;;;5071087;28;20170;-67
2020/12/22 04:56:12;;;;;;;0.90;0.90;;;13.90;99.90;;;;;;5068793;28;20224;-67
2020/12/22 04:58:38;;;;;;;0.80;0.80;;;14.00;99.90;;;;;;5051071;28;20594;-67
2020/12/22 05:01:04;;;;;;;0.83;0.80;;;14.10;99.90;;;;;;5050501;28;20199;-67
2020/12/22 05:03:29;;;;;;;0.77;0.77;;;14.10;99.90;;;;;;5074244;28;20257;-67
2020/12/22 05:05:55;;;;;;;1.10;1.00;;;14.10;99.90;;;;;;5074670;28;20219;-67
2020/12/22 05:08:22;;;;;;;0.70;0.70;;;14.10;99.90;;;;;;5055753;28;20174;-65
2020/12/22 05:10:49;;;;;;;0.87;0.87;;;14.10;99.90;;;;;;5077046;22;20209;-64
2020/12/22 05:13:16;;;;;;;0.93;0.90;;;14.10;99.90;;;;;;5014713;28;20566;-64
2020/12/22 05:15:52;;;;;;;1.23;0.90;;;14.10;99.90;;;;;;5014983;28;20719;-64
2020/12/22 05:18:25;;;;;;;1.00;1.00;;;14.10;99.90;;;;;;5014471;28;20180;-64
2020/12/22 05:20:51;;;;;;;1.40;1.30;;;14.10;99.90;;;;;;5014697;28;20168;-64
2020/12/22 05:23:19;;;;;;;1.93;0.87;;;14.10;99.90;;;;;;4996908;28;20271;-64
2020/12/22 05:25:46;;;;;;;0.90;0.90;;;14.10;99.90;;;;;;4997305;28;20176;-64
2020/12/22 05:28:20;;;;;;;0.90;0.90;;;14.10;99.90;;;;;;5014482;28;20187;-64
2020/12/22 05:30:47;;;;;;;1.17;1.17;;;14.10;99.90;;;;;;5014493;28;20164;-64
2020/12/22 05:33:13;;;;;;;0.90;0.90;;;14.20;99.90;;;;;;5014292;28;20259;-64
2020/12/22 05:35:46;;;;;;;1.40;1.30;;;14.20;99.90;;;;;;5013860;28;20466;-64
2020/12/22 05:38:14;;;;;;;1.27;1.17;;;14.20;99.90;;;;;;5014354;28;20176;-64
2020/12/22 05:40:42;;;;;;;1.13;0.93;;;14.20;99.90;;;;;;5014444;28;20194;-65
2020/12/22 05:43:09;;;;;;;1.00;0.90;;;14.20;99.90;;;;;;5013751;28;20207;-65
2020/12/22 05:45:36;;;;;;;1.40;1.30;;;14.10;99.90;;;;;;5014414;28;20220;-65
2020/12/22 05:48:03;;;;;;;1.10;1.00;;;14.00;99.90;;;;;;5014109;28;20294;-64
2020/12/22 05:50:29;;;;;;;1.20;1.07;;;14.00;99.90;;;;;;5014036;28;20164;-63
2020/12/22 05:52:56;;;;;;;0.83;0.83;;;14.10;99.90;;;;;;5013803;28;20245;-64
2020/12/22 05:55:32;;;;;;;2.40;1.47;;;14.10;99.90;;;;;;5013990;28;20184;-63
2020/12/22 05:58:11;;;;;;;2.00;1.30;;;14.20;99.90;;;;;;5013740;28;20180;-64
2020/12/22 06:00:38;;;;;;;0.80;0.80;;;14.20;99.90;;;;;;5013932;28;20183;-64
2020/12/22 06:03:14;;;;;;;2.23;1.77;;;14.20;99.90;;;;;;5013671;28;20223;-64
2020/12/22 06:05:42;;;;;;;2.10;1.70;;;14.20;99.90;;;;;;5014127;28;20175;-65
2020/12/22 06:08:10;;;;;;;6.03;3.27;;;14.30;99.90;;;;;;5013480;28;20180;-64
2020/12/22 06:10:37;;;;;;;2.30;1.00;;;14.30;99.90;;;;;;5013530;28;20160;-64
2020/12/22 06:13:05;;;;;;;4.50;2.00;;;14.30;99.90;;;;;;5013196;28;20318;-64
2020/12/22 06:15:31;;;;;;;2.80;1.10;;;14.30;99.90;;;;;;5013779;28;20201;-66
2020/12/22 06:17:56;;;;;;;2.03;1.63;;;14.30;99.90;;;;;;5013733;28;20196;-64
2020/12/22 06:20:23;;;;;;;1.60;0.97;;;14.40;99.90;;;;;;5013497;28;20270;-64
2020/12/22 06:22:50;;;;;;;1.93;1.43;;;14.40;99.90;;;;;;5013359;28;20219;-64
2020/12/22 06:25:21;;;;;;;3.20;2.13;;;14.40;99.90;;;;;;5013572;28;20168;-64
2020/12/22 06:27:47;;;;;;;0.80;0.80;;;14.40;99.90;;;;;;5013243;28;20214;-64
2020/12/22 06:30:16;;;;;;;0.80;0.80;;;14.40;99.90;;;;;;5013338;28;20634;-65
2020/12/22 06:32:41;;;;;;;0.80;0.80;;;14.40;99.90;;;;;;5013481;28;20200;-65
2020/12/22 06:35:30;;;;;;;0.90;0.90;;;14.30;99.90;;;;;;5012371;28;20529;-65
2020/12/22 06:37:57;;;;;;;1.67;1.00;;;14.30;99.90;;;;;;5013259;28;20695;-65
2020/12/22 06:40:52;;;;;;;0.70;0.70;;;14.30;99.90;;;;;;5013195;28;20180;-64
2020/12/22 06:43:43;;;;;;;2.97;1.53;;;14.30;99.90;;;;;;5013051;28;20180;-65
2020/12/22 06:46:29;;;;;;;2.13;1.93;;;14.20;99.90;;;;;;4995229;28;20223;-64
2020/12/22 06:48:55;;;;;;;2.83;2.00;;;14.20;99.90;;;;;;4992281;28;20411;-65
2020/12/22 06:51:34;;;;;;;1.33;1.00;;;14.20;99.90;;;;;;5012519;28;20776;-65
2020/12/22 06:54:02;;;;;;;1.50;1.40;;;14.20;99.90;;;;;;5013309;28;20545;-66
2020/12/22 06:56:47;;;;;;;2.30;2.00;;;14.20;99.90;;;;;;5012805;28;20647;-65
2020/12/22 06:59:39;;;;;;;3.50;1.60;;;14.20;99.90;;;;;;5012738;28;20199;-65
2020/12/22 07:02:05;;;;;;;2.13;1.47;;;14.20;99.90;;;;;;5004288;28;20216;-66
2020/12/22 07:04:40;;;;;;;2.63;1.70;;;14.40;99.90;;;;;;5012706;28;20176;-65
2020/12/22 07:07:06;;;;;;;1.47;1.20;;;14.40;99.90;;;;;;5012599;28;20207;-65
2020/12/22 07:09:33;;;;;;;1.33;1.23;;;14.50;99.90;;;;;;5012674;28;20168;-65
2020/12/22 07:12:08;;;;;;;2.70;0.90;;;14.40;99.90;;;;;;5012395;28;20239;-65
2020/12/22 07:14:38;;;;;;;0.93;0.93;;;14.40;99.90;;;;;;5012385;28;20172;-65
2020/12/22 07:17:04;;;;;;;1.60;0.93;;;14.40;99.90;;;;;;5012508;28;20190;-64
2020/12/22 07:19:32;;;;;;;1.47;1.33;;;14.40;99.90;;;;;;5012565;28;20250;-65
2020/12/22 07:22:05;;;;;;;1.10;1.00;;;14.40;99.90;;;;;;5012146;28;20257;-65
2020/12/22 07:24:36;;;;;;;1.40;1.10;;;14.40;99.90;;;;;;5012077;28;20657;-65
2020/12/22 07:27:04;;;;;;;1.23;1.20;;;14.40;99.90;;;;;;5012211;28;20708;-65
2020/12/22 07:29:30;;;;;;;1.97;1.70;;;14.40;99.90;;;;;;5012738;28;20172;-65
2020/12/22 07:31:56;;;;;;;1.37;1.27;;;14.40;99.90;;;;;;5012131;28;20278;-65
2020/12/22 07:34:22;;;;;;;1.60;1.27;;;14.40;99.90;;;;;;4994478;28;20636;-65
2020/12/22 07:36:48;;;;;;;1.30;1.20;;;14.40;99.90;;;;;;5011367;28;20173;-66
2020/12/22 07:39:21;;;;;;;3.07;1.40;;;14.30;99.90;;;;;;5011894;28;20184;-66
2020/12/22 07:41:48;;;;;;;2.33;1.93;;;14.30;99.90;;;;;;4994497;28;20282;-64
2020/12/22 07:44:19;;;;;;;3.13;1.73;;;14.30;99.90;;;;;;5011884;28;20763;-66
2020/12/22 07:46:47;;;;;;;2.03;1.53;;;14.30;99.90;;;;;;5012157;28;20538;-65
2020/12/22 07:49:14;;;;;;;2.93;2.60;;;14.20;99.90;;;;;;5011698;28;20180;-66
2020/12/22 07:51:44;;;;;;;5.77;4.00;;;14.10;99.90;;;;;;5011947;28;20670;-66
2020/12/22 07:54:10;;;;;;;4.90;3.30;;;14.10;99.90;;;;;;5011829;28;20576;-65
2020/12/22 07:56:38;;;;;;;3.37;2.73;;;14.10;99.90;;;;;;5011866;28;20247;-65
2020/12/22 07:59:06;;;;;;;6.37;4.30;;;14.00;99.90;;;;;;5011854;28;20184;-65
2020/12/22 08:01:42;;;;;;;3.87;2.93;;;14.00;99.90;;;;;;5011586;28;20601;-65
2020/12/22 08:04:19;;;;;;;4.13;2.43;;;14.00;99.90;;;;;;5012206;28;20168;-65
2020/12/22 08:07:08;;;;;;;5.40;3.57;;;13.90;99.90;;;;;;4992337;28;20234;-65
2020/12/22 08:09:38;;;;;;;5.93;2.60;;;13.90;99.90;;;;;;4994817;28;20570;-65
2020/12/22 08:12:08;;;;;;;5.27;3.20;;;13.90;99.90;;;;;;5012787;28;20584;-64
2020/12/22 08:14:42;;;;;;;2.77;2.33;;;13.90;99.90;;;;;;5013303;28;20165;-65
2020/12/22 08:17:14;;;;;;;2.47;2.13;;;13.90;99.90;;;;;;5012505;28;20168;-65
2020/12/22 08:19:40;;;;;;;3.43;2.50;;;13.80;99.90;;;;;;5011534;28;20188;-65
2020/12/22 08:22:06;;;;;;;4.33;2.30;;;13.80;99.90;;;;;;5011309;28;20272;-65
2020/12/22 08:24:36;;;;;;;2.70;2.10;;;13.80;99.90;;;;;;5011575;28;20641;-65
2020/12/22 08:27:04;;;;;;;3.23;2.00;;;13.80;99.90;;;;;;5011461;28;20580;-65
2020/12/22 08:29:30;;;;;;;2.97;2.00;;;13.90;99.90;;;;;;5011489;28;20180;-65
2020/12/22 08:31:59;;;;;;;2.67;1.97;;;13.90;99.90;;;;;;5011393;28;20266;-66
2020/12/22 08:34:26;;;;;;;3.17;2.03;;;14.00;99.90;;;;;;5011438;28;20168;-65
2020/12/22 08:36:51;;;;;;;2.03;1.70;;;14.00;99.90;;;;;;5014360;28;20626;-65
2020/12/22 08:39:22;;;;;;;3.53;1.83;;;14.10;99.90;;;;;;5015448;28;20259;-66
2020/12/22 08:41:50;;;;;;;2.73;1.33;;;14.10;99.90;;;;;;5015383;28;20192;-65
2020/12/22 08:44:17;;;;;;;2.27;1.67;;;14.20;99.90;;;;;;5015616;28;20172;-65
2020/12/22 08:46:43;;;;;;;5.63;3.73;;;14.30;99.90;;;;;;5016348;28;20242;-65
2020/12/22 08:49:17;;;;;;;8.53;5.23;;;14.30;99.90;;;;;;5015003;28;20199;-64
2020/12/22 08:51:44;;;;;;;4.87;3.53;;;14.20;99.90;;;;;;5015115;28;20223;-65
2020/12/22 08:54:10;;;;;;;2.00;1.63;;;14.20;99.90;;;;;;4997416;28;20211;-65
2020/12/22 08:56:39;;;;;;;1.93;1.50;;;14.20;99.90;;;;;;5014011;28;20180;-65
2020/12/22 08:59:09;;;;;;;2.93;1.50;;;14.30;99.90;;;;;;5014424;28;20176;-64
2020/12/22 09:01:42;;;;;;;3.80;1.57;;;14.40;99.90;;;;;;5014650;28;20552;-64
2020/12/22 09:04:09;;;;;;;1.40;1.30;;;14.30;99.90;;;;;;5014722;28;20283;-64
2020/12/22 09:06:53;;;;;;;4.47;1.70;;;14.30;99.90;;;;;;5015320;28;20207;-64
2020/12/22 09:09:30;;;;;;;1.70;1.60;;;14.20;99.90;;;;;;4994586;28;20181;-64
2020/12/22 09:12:11;;;;;;;1.50;1.40;;;14.10;99.90;;;;;;5001560;28;20246;-65
2020/12/22 09:14:45;;;;;;;2.87;1.50;;;14.00;99.90;;;;;;5014896;28;20175;-66
2020/12/22 09:17:13;;;;;;;3.07;1.67;;;14.00;99.90;;;;;;5014347;28;20184;-65
2020/12/22 09:19:43;;;;;;;1.10;1.10;;;14.00;99.90;;;;;;5014865;28;20176;-65
2020/12/22 09:22:09;;;;;;;1.97;1.70;;;14.10;99.90;;;;;;5013955;28;20665;-65
2020/12/22 09:24:35;;;;;;;1.50;1.40;;;14.10;99.90;;;;;;5014672;28;20180;-65
2020/12/22 09:27:05;;;;;;;2.20;1.60;;;14.20;99.90;;;;;;4996751;28;20215;-65
2020/12/22 09:29:32;;;;;;;1.60;1.47;;;14.30;99.90;;;;;;4995019;28;20170;-65
2020/12/22 09:31:59;;;;;;;1.57;1.47;;;14.30;99.90;;;;;;5012530;28;20673;-65
2020/12/22 09:34:26;;;;;;;1.67;1.27;;;14.40;99.90;;;;;;5014288;28;20180;-65
2020/12/22 09:37:01;;;;;;;2.13;1.50;;;14.40;99.90;;;;;;5014438;28;20214;-64
2020/12/22 09:39:28;;;;;;;2.07;1.40;;;14.50;99.90;;;;;;5014166;28;20254;-65
2020/12/22 09:41:54;;;;;;;3.57;1.43;;;14.50;99.90;;;;;;5013945;28;20449;-66
2020/12/22 09:44:20;;;;;;;1.97;1.43;;;14.60;99.90;;;;;;5014343;28;20184;-65
2020/12/22 09:46:48;;;;;;;4.23;1.40;;;14.60;99.90;;;;;;5014229;28;20199;-65
2020/12/22 09:49:14;;;;;;;2.33;1.60;;;14.60;99.90;;;;;;5013061;28;20259;-65
2020/12/22 09:51:39;;;;;;;1.70;1.20;;;14.70;99.90;;;;;;5013809;28;20334;-65
2020/12/22 09:54:05;;;;;;;1.33;1.20;;;14.80;99.90;;;;;;5013716;28;20184;-65
2020/12/22 09:56:31;;;;;;;1.30;1.10;;;14.90;99.90;;;;;;5013854;28;20279;-65
2020/12/22 09:58:58;;;;;;;0.90;0.90;;;15.00;99.90;;;;;;5014052;28;20172;-66
2020/12/22 10:01:25;;;;;;;0.90;0.90;;;15.10;99.90;;;;;;5013196;28;20192;-65
2020/12/22 10:03:51;;;;;;;0.90;0.90;;;15.20;99.90;;;;;;5013892;28;20394;-64
2020/12/22 10:06:21;;;;;;;2.37;1.00;;;15.20;99.90;;;;;;5013463;28;20574;-65
2020/12/22 10:08:47;;;;;;;1.33;1.00;;;15.30;99.90;;;;;;5013721;28;20176;-64
2020/12/22 10:11:13;;;;;;;1.90;1.27;;;15.50;99.90;;;;;;5012000;28;20211;-64
2020/12/22 10:13:39;;;;;;;1.10;1.00;;;15.50;99.90;;;;;;5013676;28;20183;-65
2020/12/22 10:16:12;;;;;;;0.97;0.97;;;15.60;99.90;;;;;;5013498;28;20165;-64
2020/12/22 10:18:38;;;;;;;0.80;0.80;;;15.80;99.90;;;;;;5013421;28;20184;-65
2020/12/22 10:21:09;;;;;;;1.53;1.23;;;16.10;99.90;;;;;;5013059;28;20195;-65
2020/12/22 10:23:35;;;;;;;0.83;0.83;;;16.30;99.90;;;;;;5013388;28;20176;-65
2020/12/22 10:26:06;;;;;;;0.90;0.90;;;16.30;99.90;;;;;;5013237;28;20203;-65
2020/12/22 10:28:33;;;;;;;0.80;0.80;;;16.50;99.90;;;;;;5013396;28;20261;-65
2020/12/22 10:30:59;;;;;;;1.00;0.93;;;16.60;99.90;;;;;;5012566;28;20543;-65
2020/12/22 10:33:25;;;;;;;2.57;0.90;;;16.50;99.90;;;;;;5013237;28;20259;-65
2020/12/22 10:35:51;;;;;;;0.90;0.90;;;16.70;99.90;;;;;;5013117;28;20180;-66
2020/12/22 10:38:17;;;;;;;1.73;0.90;;;16.90;99.90;;;;;;5013098;28;20612;-65
2020/12/22 10:40:42;;;;;;;0.90;0.90;;;17.20;99.90;;;;;;5012979;28;20204;-65
2020/12/22 10:43:08;;;;;;;0.73;0.73;;;17.20;99.90;;;;;;5012785;28;20181;-65
2020/12/22 10:45:35;;;;;;;0.80;0.80;;;17.00;99.90;;;;;;5011886;28;20207;-65
2020/12/22 10:48:00;;;;;;;1.63;0.93;;;16.90;99.90;;;;;;5012620;28;20208;-65
2020/12/22 10:50:27;;;;;;;2.80;1.10;;;16.70;99.90;;;;;;5011629;28;20164;-66
2020/12/22 10:52:52;;;;;;;1.33;0.90;;;16.40;99.90;;;;;;5012720;28;20204;-66
2020/12/22 10:55:18;;;;;;;1.20;1.10;;;16.40;99.90;;;;;;5012701;28;20207;-65
2020/12/22 10:57:44;;;;;;;0.97;0.90;;;16.20;99.90;;;;;;5012637;28;20263;-64
2020/12/22 11:00:09;;;;;;;0.90;0.90;;;15.90;99.90;;;;;;5011477;28;20184;-67
2020/12/22 11:02:36;;;;;;;1.57;1.10;;;15.70;99.90;;;;;;5012776;28;20203;-65
2020/12/22 11:05:01;;;;;;;1.40;1.07;;;15.50;99.90;;;;;;5012583;28;20210;-65
2020/12/22 11:07:41;;;;;;;0.93;0.90;;;15.60;99.90;;;;;;5012203;28;20200;-65
2020/12/22 11:10:06;;;;;;;1.63;0.83;;;15.80;99.90;;;;;;5012299;28;20274;-64
2020/12/22 11:12:32;;;;;;;1.07;0.97;;;15.80;99.90;;;;;;5051105;22;20306;-62
2020/12/22 11:14:59;;;;;;;0.97;0.97;;;16.00;99.90;;;;;;5032221;28;20226;-63
2020/12/22 11:17:25;;;;;;;1.00;1.00;;;16.00;99.90;;;;;;5032067;28;20179;-63
2020/12/22 11:19:50;;;;;;;1.07;0.87;;;16.00;99.90;;;;;;5031989;28;20191;-64
2020/12/22 11:22:16;;;;;;;0.90;0.90;;;15.90;99.90;;;;;;5031635;28;20202;-63
2020/12/22 11:24:41;;;;;;;0.97;0.97;;;15.90;99.90;;;;;;5032167;28;20211;-63
2020/12/22 11:27:07;;;;;;;7.37;3.40;;;16.00;99.90;;;;;;5031422;28;20226;-63
2020/12/22 11:29:33;;;;;;;6.63;3.90;;;16.00;99.90;;;;;;5031836;28;20179;-64
2020/12/22 11:31:58;;;;;;;4.90;3.13;;;15.80;99.90;;;;;;5031212;28;20191;-62
2020/12/22 11:34:24;;;;;;;4.13;1.80;;;15.50;99.90;;;;;;5031803;28;20225;-63
2020/12/22 11:36:51;;;;;;;1.43;1.33;;;15.20;99.90;;;;;;5031633;28;20255;-63
2020/12/22 11:39:17;;;;;;;2.33;1.60;;;15.00;99.90;;;;;;5031397;28;20172;-63
2020/12/22 11:41:42;;;;;;;2.07;1.87;;;14.90;99.90;;;;;;5030944;28;20194;-64
2020/12/22 11:44:09;;;;;;;1.73;1.57;;;14.90;99.90;;;;;;5031510;28;20214;-63
2020/12/22 11:46:35;;;;;;;2.03;1.50;;;14.90;99.90;;;;;;5031741;28;20273;-63
2020/12/22 11:49:01;;;;;;;1.40;1.30;;;14.90;99.90;;;;;;5031218;28;20171;-63
2020/12/22 11:51:27;;;;;;;2.73;1.50;;;14.90;99.90;;;;;;5031113;28;20270;-63
2020/12/22 11:53:52;;;;;;;1.33;1.23;;;14.90;99.90;;;;;;5031327;28;20713;-63
2020/12/22 11:56:18;;;;;;;3.53;1.50;;;14.90;99.90;;;;;;5031344;28;20206;-63
2020/12/22 11:58:44;;;;;;;2.67;1.77;;;14.90;99.90;;;;;;5031393;28;20591;-64
2020/12/22 12:01:09;;;;;;;1.93;1.40;;;14.90;99.90;;;;;;5030885;28;20179;-63
2020/12/22 12:03:35;;;;;;;2.30;1.70;;;14.90;99.90;;;;;;5031162;28;20916;-63
2020/12/22 12:06:01;;;;;;;2.50;1.60;;;14.90;99.90;;;;;;5031304;28;20675;-63
2020/12/22 12:08:27;;;;;;;3.27;1.70;;;14.80;99.90;;;;;;5030904;28;20179;-63
2020/12/22 12:10:53;;;;;;;2.87;2.27;;;14.60;99.90;;;;;;5030739;28;20172;-63
2020/12/22 12:13:18;;;;;;;3.50;1.90;;;14.50;99.90;;;;;;5030804;28;20202;-64
2020/12/22 12:15:44;;;;;;;3.60;2.50;;;14.50;99.90;;;;;;5031259;28;20171;-64
2020/12/22 12:18:09;;;;;;;3.30;2.20;;;14.30;99.90;;;;;;5030892;28;20216;-62
2020/12/22 12:20:35;;;;;;;1.43;1.33;;;14.10;99.90;;;;;;5030984;28;20214;-63
2020/12/22 12:23:01;;;;;;;1.40;1.30;;;13.90;99.90;;;;;;5030823;28;20199;-64
2020/12/22 12:25:27;;;;;;;1.77;1.53;;;13.80;99.90;;;;;;5031012;28;20263;-64
2020/12/22 12:27:52;;;;;;;2.83;1.40;;;13.70;99.90;;;;;;5031111;28;20235;-64
2020/12/22 12:30:18;;;;;;;1.60;1.50;;;13.70;99.90;;;;;;5030841;28;20168;-63
2020/12/22 12:32:44;;;;;;;1.77;1.40;;;13.80;99.90;;;;;;5031085;28;20754;-64
2020/12/22 12:35:10;;;;;;;1.77;1.50;;;13.90;99.90;;;;;;5030963;28;20167;-63
2020/12/22 12:37:35;;;;;;;2.33;1.40;;;14.00;99.90;;;;;;5030756;28;20258;-64
2020/12/22 12:40:01;;;;;;;2.30;1.70;;;14.10;99.90;;;;;;5030894;28;20255;-63
2020/12/22 12:42:27;;;;;;;1.40;1.30;;;14.10;99.90;;;;;;5030513;28;20203;-63
2020/12/22 12:44:53;;;;;;;2.40;1.20;;;14.00;99.90;;;;;;5013392;28;20317;-64
2020/12/22 12:47:20;;;;;;;2.37;1.20;;;14.00;99.90;;;;;;5030629;28;20282;-63
2020/12/22 12:49:45;;;;;;;1.93;1.53;;;14.10;99.90;;;;;;5031348;28;20166;-63